地図

経路データ

SID SEASON NUMBER BASIN SUBBASIN NAME ISO_TIME NATURE LAT LON WMO_WIND WMO_PRES WMO_AGENCY TRACK_TYPE DIST2LAND LANDFALL IFLAG USA_AGENCY USA_ATCF_ID USA_LAT USA_LON USA_RECORD USA_STATUS USA_WIND USA_PRES USA_SSHS USA_R34_NE USA_R34_SE USA_R34_SW USA_R34_NW USA_R50_NE USA_R50_SE USA_R50_SW USA_R50_NW USA_R64_NE USA_R64_SE USA_R64_SW USA_R64_NW USA_POCI USA_ROCI USA_RMW USA_EYE TOKYO_LAT TOKYO_LON TOKYO_GRADE TOKYO_WIND TOKYO_PRES TOKYO_R50_DIR TOKYO_R50_LONG TOKYO_R50_SHORT TOKYO_R30_DIR TOKYO_R30_LONG TOKYO_R30_SHORT TOKYO_LAND CMA_LAT CMA_LON CMA_CAT CMA_WIND CMA_PRES HKO_LAT HKO_LON HKO_CAT HKO_WIND HKO_PRES NEWDELHI_LAT NEWDELHI_LON NEWDELHI_GRADE NEWDELHI_WIND NEWDELHI_PRES NEWDELHI_CI NEWDELHI_DP NEWDELHI_POCI REUNION_LAT REUNION_LON REUNION_TYPE REUNION_WIND REUNION_PRES REUNION_TNUM REUNION_CI REUNION_RMW REUNION_R34_NE REUNION_R34_SE REUNION_R34_SW REUNION_R34_NW REUNION_R50_NE REUNION_R50_SE REUNION_R50_SW REUNION_R50_NW REUNION_R64_NE REUNION_R64_SE REUNION_R64_SW REUNION_R64_NW BOM_LAT BOM_LON BOM_TYPE BOM_WIND BOM_PRES BOM_TNUM BOM_CI BOM_RMW BOM_R34_NE BOM_R34_SE BOM_R34_SW BOM_R34_NW BOM_R50_NE BOM_R50_SE BOM_R50_SW BOM_R50_NW BOM_R64_NE BOM_R64_SE BOM_R64_SW BOM_R64_NW BOM_ROCI BOM_POCI BOM_EYE BOM_POS_METHOD BOM_PRES_METHOD NADI_LAT NADI_LON NADI_CAT NADI_WIND NADI_PRES WELLINGTON_LAT WELLINGTON_LON WELLINGTON_WIND WELLINGTON_PRES DS824_LAT DS824_LON DS824_STAGE DS824_WIND DS824_PRES TD9636_LAT TD9636_LON TD9636_STAGE TD9636_WIND TD9636_PRES TD9635_LAT TD9635_LON TD9635_WIND TD9635_PRES TD9635_ROCI NEUMANN_LAT NEUMANN_LON NEUMANN_CLASS NEUMANN_WIND NEUMANN_PRES MLC_LAT MLC_LON MLC_CLASS MLC_WIND MLC_PRES USA_GUST BOM_GUST BOM_GUST_PER REUNION_GUST REUNION_GUST_PER USA_SEAHGT USA_SEARAD_NE USA_SEARAD_SE USA_SEARAD_SW USA_SEARAD_NW STORM_SPEED STORM_DIR
1932338N07137 1932 78 WP MM NOT_NAMED 1932-12-02 21:00:00 NR 7.20000 137.000 main 898 898 __________O___ -1 7.20000 137.000 4 2 117
1932338N07137 1932 78 WP MM NOT_NAMED 1932-12-03 00:00:00 NR 7.16382 137.070 main 900 900 __________P___ -1 7.16382 137.070 4 1 102
1932338N07137 1932 78 WP MM NOT_NAMED 1932-12-03 03:00:00 NR 7.18211 137.091 main 900 900 __________P___ -1 7.18211 137.091 4 2 337
1932338N07137 1932 78 WP MM NOT_NAMED 1932-12-03 06:00:00 NR 7.30935 137.017 main 909 909 __________P___ -1 7.30935 137.017 4 5 325
1932338N07137 1932 78 WP MM NOT_NAMED 1932-12-03 09:00:00 NR 7.60000 136.800 main 939 939 __________O___ -1 7.60000 136.800 4 10 322
1932338N07137 1932 78 WP MM NOT_NAMED 1932-12-03 12:00:00 NR 8.08524 136.412 main 990 990 __________P___ -1 8.08524 136.412 4 14 321
1932338N07137 1932 78 WP MM NOT_NAMED 1932-12-03 15:00:00 NR 8.70343 135.912 main 1030 985 __________P___ -1 8.70343 135.912 4 16 322
1932338N07137 1932 78 WP MM NOT_NAMED 1932-12-03 18:00:00 NR 9.36980 135.381 main 986 945 __________P___ -1 9.36980 135.381 4 16 322
1932338N07137 1932 78 WP MM NOT_NAMED 1932-12-03 21:00:00 NR 10.0000 134.900 main 948 938 __________O___ -1 10.0000 134.900 4 13 329
1932338N07137 1932 78 WP MM NOT_NAMED 1932-12-04 00:00:00 NR 10.4816 134.713 main 941 934 __________P___ -1 10.4816 134.713 4 10 340
1932338N07137 1932 78 WP MM NOT_NAMED 1932-12-04 03:00:00 NR 10.9145 134.569 main 939 925 __________P___ -1 10.9145 134.569 4 9 336
1932338N07137 1932 78 WP MM NOT_NAMED 1932-12-04 06:00:00 NR 11.3152 134.341 main 917 887 __________P___ -1 11.3152 134.341 4 10 320
1932338N07137 1932 78 WP MM NOT_NAMED 1932-12-04 09:00:00 NR 11.7000 133.900 main 887 794 __________O___ -1 11.7000 133.900 4 16 300
1932338N07137 1932 78 WP MM NOT_NAMED 1932-12-04 12:00:00 NR 12.1019 132.956 main 794 682 __________P___ -1 12.1019 132.956 4 22 291
1932338N07137 1932 78 WP MM NOT_NAMED 1932-12-04 15:00:00 NR 12.4866 131.810 main 674 568 __________P___ -1 12.4866 131.810 4 24 288
1932338N07137 1932 78 WP MM NOT_NAMED 1932-12-04 18:00:00 NR 12.8522 130.659 main 570 469 __________P___ -1 12.8522 130.659 4 22 289
1932338N07137 1932 78 WP MM NOT_NAMED 1932-12-04 21:00:00 NR 13.2000 129.700 main 469 416 __________O___ -1 13.2000 129.700 4 16 293
1932338N07137 1932 78 WP MM NOT_NAMED 1932-12-05 00:00:00 NR 13.4800 129.120 main 416 395 __________P___ -1 13.4800 129.120 4 11 302
1932338N07137 1932 78 WP MM NOT_NAMED 1932-12-05 03:00:00 NR 13.7570 128.767 main 400 386 __________P___ -1 13.7570 128.767 4 8 320
1932338N07137 1932 78 WP MM NOT_NAMED 1932-12-05 06:00:00 NR 14.0807 128.606 main 397 397 __________P___ -1 14.0807 128.606 4 8 347
1932338N07137 1932 78 WP MM NOT_NAMED 1932-12-05 09:00:00 NR 14.5000 128.600 main 422 422 __________O___ -1 14.5000 128.600 4 10 1
1932338N07137 1932 78 WP MM NOT_NAMED 1932-12-05 12:00:00 NR 15.0697 128.621 main 466 466 __________P___ -1 15.0697 128.621 4 13 8
1932338N07137 1932 78 WP MM NOT_NAMED 1932-12-05 15:00:00 NR 15.7366 128.789 main 514 514 __________P___ -1 15.7366 128.789 4 15 18
1932338N07137 1932 78 WP MM NOT_NAMED 1932-12-05 18:00:00 NR 16.4602 129.087 main 582 582 __________P___ -1 16.4602 129.087 4 16 25
1932338N07137 1932 78 WP MM NOT_NAMED 1932-12-05 21:00:00 NR 17.2000 129.500 main 659 659 __________O___ -1 17.2000 129.500 4 15 32
1932338N07137 1932 78 WP MM NOT_NAMED 1932-12-06 00:00:00 NR 17.7091 129.892 main 726 726 __________P___ -1 17.7091 129.892 4 14 39
1932338N07137 1932 78 WP MM NOT_NAMED 1932-12-06 03:00:00 NR 18.2530 130.401 main 808 808 __________P___ -1 18.2530 130.401 4 17 41
1932338N07137 1932 78 WP MM NOT_NAMED 1932-12-06 06:00:00 NR 18.9703 131.058 main 914 914 __________P___ -1 18.9703 131.058 4 23 39
1932338N07137 1932 78 WP MM NOT_NAMED 1932-12-06 09:00:00 NR 20.0000 131.900 main 1023 1023 __________O___ -1 20.0000 131.900 4 34 35
1932338N07137 1932 78 WP MM NOT_NAMED 1932-12-06 12:00:00 NR 21.7207 133.105 main 1065 903 __________P___ -1 21.7207 133.105 4 45 33
1932338N07137 1932 78 WP MM NOT_NAMED 1932-12-06 15:00:00 NR 23.7171 134.501 main 897 776 __________P___ -1 23.7171 134.501 4 47 33
1932338N07137 1932 78 WP MM NOT_NAMED 1932-12-06 18:00:00 NR 25.6783 135.902 main 772 701 __________P___ -1 25.6783 135.902 4 43 33
1932338N07137 1932 78 WP MM NOT_NAMED 1932-12-06 21:00:00 NR 27.3000 137.100 main 691 621 __________O___ -1 27.3000 137.100 4 27 29
1932338N07137 1932 78 WP MM NOT_NAMED 1932-12-07 00:00:00 NR 28.0599 137.370 main 610 567 __________P___ -1 28.0599 137.370 4 12 14
1932338N07137 1932 78 WP MM NOT_NAMED 1932-12-07 03:00:00 NR 28.4911 137.442 main 567 540 __________P___ -1 28.4911 137.442 4 9 24
1932338N07137 1932 78 WP MM NOT_NAMED 1932-12-07 06:00:00 NR 28.8531 137.765 main 536 523 __________P___ -1 28.8531 137.765 4 15 53
1932338N07137 1932 78 WP MM NOT_NAMED 1932-12-07 09:00:00 NR 29.4000 138.800 main 529 518 __________O___ -1 29.4000 138.800 4 31 62
1932338N07137 1932 78 WP MM NOT_NAMED 1932-12-07 12:00:00 NR 30.3072 140.915 main 518 498 __________P___ -1 30.3072 140.915 4 49 65
1932338N07137 1932 78 WP MM NOT_NAMED 1932-12-07 15:00:00 NR 31.4828 144.000 main 530 530 __________P___ -1 31.4828 144.000 4 64 67
1932338N07137 1932 78 WP MM NOT_NAMED 1932-12-07 18:00:00 NR 32.7642 147.797 main 710 710 __________P___ -1 32.7642 147.797 4 72 69
1932338N07137 1932 78 WP MM NOT_NAMED 1932-12-07 21:00:00 NR 34.0000 152.000 main 1027 __________O___ -1 34.0000 152.000 4 74 70

デジタル台風データ・検索

IBTrACS Databaseについて

本データベースは、米国NOAAが公開する1842年以降の世界の熱帯低気圧のベストトラックデータアーカイブInternational Best Track Archive for Climate Stewardship (IBTrACS)を、ウェブで閲覧しやすい形式に変換したものです。

最終更新日:2021-10-21